createdAt,value
2018-03-30T00:02:01.688Z,65.04
2018-03-30T00:04:30.798Z,65.51
2018-03-30T00:07:06.687Z,65.92
2018-03-30T00:09:54.160Z,66.15
2018-03-30T00:12:23.281Z,66.00
2018-03-30T00:14:52.388Z,65.40
2018-03-30T00:17:21.477Z,65.61
2018-03-30T00:19:50.617Z,66.10
2018-03-30T00:22:20.490Z,65.22
2018-03-30T00:24:49.597Z,64.93
2018-03-30T00:27:19.468Z,64.86
2018-03-30T00:29:48.570Z,64.20
2018-03-30T00:32:17.667Z,63.92
2018-03-30T00:34:46.794Z,63.41
2018-03-30T00:37:15.880Z,63.48
2018-03-30T00:39:45.022Z,63.22
2018-03-30T00:42:14.123Z,62.98
2018-03-30T00:44:43.223Z,62.99
2018-03-30T00:47:14.087Z,63.22
2018-03-30T00:49:43.165Z,63.31
2018-03-30T00:52:13.332Z,64.25
2018-03-30T00:54:42.417Z,64.59
2018-03-30T00:57:11.533Z,64.41
2018-03-30T00:59:40.616Z,64.84
2018-03-30T01:02:09.732Z,65.36
2018-03-30T01:04:39.619Z,65.21
2018-03-30T01:07:09.507Z,65.59
2018-03-30T01:09:38.596Z,65.18
2018-03-30T01:12:07.721Z,65.47
2018-03-30T01:14:36.816Z,65.47
2018-03-30T01:17:05.938Z,65.31
2018-03-30T01:19:35.035Z,65.08
2018-03-30T01:22:04.920Z,66.17
2018-03-30T01:24:34.017Z,66.97
2018-03-30T01:27:03.139Z,66.79
2018-03-30T01:29:32.231Z,67.35
2018-03-30T01:32:01.358Z,67.17
2018-03-30T01:34:30.460Z,67.55
2018-03-30T01:36:59.585Z,67.05
2018-03-30T01:39:28.693Z,67.70
2018-03-30T01:41:57.789Z,67.30
2018-03-30T01:44:26.925Z,67.38
2018-03-30T01:46:55.998Z,67.77
2018-03-30T01:49:25.124Z,67.83
2018-03-30T01:51:54.974Z,67.61
2018-03-30T01:54:24.094Z,67.77
2018-03-30T01:56:53.172Z,67.25
2018-03-30T01:59:22.298Z,67.21
2018-03-30T02:01:51.390Z,67.92
2018-03-30T02:04:20.522Z,68.45
2018-03-30T02:06:50.389Z,67.95
2018-03-30T02:09:19.487Z,67.68
2018-03-30T02:11:49.357Z,67.68
2018-03-30T02:14:18.456Z,67.97
2018-03-30T02:16:47.559Z,67.57
2018-03-30T02:19:16.642Z,67.62
2018-03-30T02:21:45.762Z,68.02
2018-03-30T02:24:14.847Z,67.79
2018-03-30T02:26:43.966Z,68.35
2018-03-30T02:29:13.397Z,67.98
2018-03-30T02:31:42.511Z,67.08
2018-03-30T02:34:13.602Z,66.58
2018-03-30T02:36:42.715Z,67.31
2018-03-30T02:39:11.820Z,67.87
2018-03-30T02:41:40.908Z,67.21
2018-03-30T02:44:10.016Z,67.07
2018-03-30T02:46:39.889Z,67.33
2018-03-30T02:49:08.989Z,67.69
2018-03-30T02:51:38.070Z,68.02
2018-03-30T02:54:07.180Z,68.42
2018-03-30T02:56:36.277Z,68.71
2018-03-30T02:59:05.386Z,68.24
2018-03-30T03:01:34.485Z,68.05
2018-03-30T03:04:03.588Z,68.01
2018-03-30T03:06:32.674Z,67.86
2018-03-30T03:09:01.785Z,68.19
2018-03-30T03:11:30.891Z,68.38
2018-03-30T03:14:00.020Z,69.16
2018-03-30T03:16:29.870Z,68.31
2018-03-30T03:18:58.999Z,68.02
2018-03-30T03:21:28.118Z,67.95
2018-03-30T03:23:58.002Z,67.85
2018-03-30T03:26:27.882Z,68.39
2018-03-30T03:28:56.977Z,67.98
2018-03-30T03:31:26.072Z,68.84
2018-03-30T03:33:55.160Z,68.13
2018-03-30T03:36:24.267Z,68.08
2018-03-30T03:38:53.458Z,67.14
2018-03-30T03:41:22.573Z,67.21
2018-03-30T03:43:51.687Z,67.42
2018-03-30T03:48:55.917Z,68.68
2018-03-30T03:51:25.022Z,69.34
2018-03-30T03:53:54.140Z,68.48
2018-03-30T03:56:23.247Z,68.25
2018-03-30T03:58:53.106Z,68.23
2018-03-30T04:01:22.195Z,68.16
2018-03-30T04:03:51.295Z,68.56
2018-03-30T04:06:20.429Z,69.05
2018-03-30T04:08:49.519Z,69.11
2018-03-30T04:11:18.623Z,69.20
2018-03-30T04:13:48.504Z,69.66
2018-03-30T04:16:17.616Z,70.40
2018-03-30T04:18:46.717Z,69.98
2018-03-30T04:21:15.818Z,70.12
2018-03-30T04:23:44.966Z,69.24
2018-03-30T04:26:14.054Z,68.27
2018-03-30T04:28:43.216Z,68.27
2018-03-30T04:31:13.530Z,68.00
2018-03-30T04:33:42.641Z,68.73
2018-03-30T04:36:13.742Z,68.28
2018-03-30T04:38:42.888Z,69.17
2018-03-30T04:41:11.985Z,69.89
2018-03-30T04:43:41.864Z,70.24
2018-03-30T04:46:10.972Z,70.00
2018-03-30T04:48:40.082Z,70.60
2018-03-30T04:51:09.943Z,70.31
2018-03-30T04:53:39.061Z,70.01
2018-03-30T04:56:08.191Z,70.04
2018-03-30T04:58:38.050Z,69.86
2018-03-30T05:01:07.152Z,68.83
2018-03-30T05:03:36.259Z,68.50
2018-03-30T05:06:05.399Z,68.42
2018-03-30T05:08:35.258Z,68.22
2018-03-30T05:11:04.375Z,68.41
2018-03-30T05:13:33.474Z,68.41
2018-03-30T05:16:02.592Z,68.16
2018-03-30T05:18:32.452Z,68.94
2018-03-30T05:21:01.581Z,69.17
2018-03-30T05:23:30.666Z,69.43
2018-03-30T05:25:59.770Z,69.51
2018-03-30T05:28:28.865Z,69.66
2018-03-30T05:30:57.998Z,69.67
2018-03-30T05:33:27.859Z,69.45
2018-03-30T05:35:58.172Z,69.79
2018-03-30T05:38:27.281Z,69.39
2018-03-30T05:40:56.385Z,69.50
2018-03-30T05:43:25.520Z,70.27
2018-03-30T05:45:55.400Z,70.62
2018-03-30T05:48:24.506Z,70.42
2018-03-30T05:50:53.610Z,70.67
2018-03-30T05:53:22.726Z,70.03
2018-03-30T05:55:52.611Z,69.84
2018-03-30T05:58:21.743Z,69.79
2018-03-30T06:00:51.611Z,69.73
2018-03-30T06:03:20.747Z,69.09
2018-03-30T06:05:49.839Z,69.32
2018-03-30T06:08:19.734Z,69.23
2018-03-30T06:10:48.830Z,69.23
2018-03-30T06:13:17.994Z,69.00
2018-03-30T06:15:47.188Z,69.01
2018-03-30T06:18:16.332Z,69.26
2018-03-30T06:20:45.454Z,69.15
2018-03-30T06:23:14.558Z,68.88
2018-03-30T06:25:43.677Z,68.85
2018-03-30T06:28:13.692Z,68.58
2018-03-30T06:30:42.800Z,68.12
2018-03-30T06:33:11.921Z,67.87
2018-03-30T06:35:41.021Z,68.02
2018-03-30T06:38:10.201Z,68.05
2018-03-30T06:40:39.299Z,68.03
2018-03-30T06:43:08.420Z,67.31
2018-03-30T06:45:38.290Z,67.46
2018-03-30T06:48:07.417Z,67.34
2018-03-30T06:50:36.538Z,66.69
2018-03-30T06:53:06.904Z,66.33
2018-03-30T06:55:36.007Z,65.99
2018-03-30T06:58:05.114Z,66.05
2018-03-30T07:00:34.218Z,65.48
2018-03-30T07:03:03.328Z,65.10
2018-03-30T07:05:32.459Z,64.91
2018-03-30T07:08:02.395Z,64.56
2018-03-30T07:10:32.288Z,64.10
2018-03-30T07:13:01.419Z,64.05
2018-03-30T07:15:30.533Z,64.02
2018-03-30T07:17:59.673Z,64.11
2018-03-30T07:20:28.796Z,63.97
2018-03-30T07:22:57.915Z,63.37
2018-03-30T07:25:27.035Z,63.05
2018-03-30T07:27:56.151Z,62.44
2018-03-30T07:30:25.269Z,62.03
2018-03-30T07:32:54.386Z,61.73
2018-03-30T07:35:23.514Z,62.11
2018-03-30T07:37:52.636Z,61.93
2018-03-30T07:40:22.521Z,61.54
2018-03-30T07:42:51.631Z,61.31
2018-03-30T07:45:20.760Z,61.15
2018-03-30T07:47:49.872Z,60.81
2018-03-30T07:50:18.978Z,61.02
2018-03-30T07:52:48.111Z,60.74
2018-03-30T07:55:17.237Z,60.35
2018-03-30T07:57:46.350Z,59.95
2018-03-30T08:00:15.454Z,59.84
2018-03-30T08:02:44.613Z,60.04
2018-03-30T08:05:13.844Z,59.89
2018-03-30T08:07:42.976Z,59.85
2018-03-30T08:10:12.095Z,59.64
2018-03-30T08:12:41.227Z,59.71
2018-03-30T08:15:10.355Z,59.62
2018-03-30T08:17:39.468Z,59.60
2018-03-30T08:20:08.565Z,59.28
2018-03-30T08:22:37.706Z,58.63
2018-03-30T08:25:07.615Z,58.22
2018-03-30T08:27:37.512Z,58.07
2018-03-30T08:30:06.626Z,58.13
2018-03-30T08:32:36.526Z,57.62
2018-03-30T08:35:05.656Z,57.08
2018-03-30T08:37:35.577Z,57.44
2018-03-30T08:40:04.725Z,56.83
2018-03-30T08:42:33.859Z,56.47
2018-03-30T08:45:02.984Z,56.19
2018-03-30T08:47:32.073Z,55.75
2018-03-30T08:50:01.195Z,55.33
2018-03-30T08:52:30.298Z,55.04
2018-03-30T08:54:59.428Z,55.26
2018-03-30T08:57:29.335Z,55.22
2018-03-30T08:59:58.461Z,54.48
2018-03-30T09:02:27.576Z,54.31
2018-03-30T09:04:56.720Z,54.37
2018-03-30T09:07:25.832Z,53.97
2018-03-30T09:09:55.746Z,53.55
2018-03-30T09:12:25.623Z,53.09
2018-03-30T09:14:54.751Z,53.21
2018-03-30T09:17:24.640Z,53.30
2018-03-30T09:19:53.769Z,53.33
2018-03-30T09:22:23.678Z,53.28
2018-03-30T09:24:53.538Z,53.30
2018-03-30T09:27:22.663Z,53.08
2018-03-30T09:29:52.976Z,53.06
2018-03-30T09:32:22.090Z,53.10
2018-03-30T09:34:51.213Z,53.01
2018-03-30T09:37:21.098Z,53.17
2018-03-30T09:39:50.235Z,53.26
2018-03-30T09:42:20.139Z,53.35
2018-03-30T09:44:50.030Z,54.02
2018-03-30T09:47:19.150Z,53.16
2018-03-30T09:49:48.266Z,53.18
2018-03-30T09:52:17.415Z,53.25
2018-03-30T09:54:47.278Z,52.69
2018-03-30T09:57:16.406Z,52.59
2018-03-30T09:59:45.516Z,52.21
2018-03-30T10:02:14.682Z,52.22
2018-03-30T10:04:44.723Z,51.83
2018-03-30T10:07:14.086Z,51.82
2018-03-30T10:09:43.205Z,51.99
2018-03-30T10:12:12.314Z,51.54
2018-03-30T10:14:41.448Z,50.31
2018-03-30T10:17:11.328Z,50.25
2018-03-30T10:19:40.465Z,49.86
2018-03-30T10:22:09.587Z,49.70
2018-03-30T10:24:38.727Z,49.62
2018-03-30T10:27:07.831Z,49.05
2018-03-30T10:29:36.981Z,49.16
2018-03-30T10:32:06.113Z,48.50
2018-03-30T10:34:35.224Z,48.10
2018-03-30T10:37:04.335Z,48.32
2018-03-30T10:39:34.218Z,48.21
2018-03-30T10:42:03.384Z,48.24
2018-03-30T10:44:32.504Z,47.89
2018-03-30T10:47:01.632Z,47.01
2018-03-30T10:49:30.732Z,47.09
2018-03-30T10:51:59.868Z,46.74
2018-03-30T10:54:28.983Z,46.25
2018-03-30T10:56:58.108Z,46.86
2018-03-30T10:59:27.204Z,46.06
2018-03-30T11:01:56.340Z,46.16
2018-03-30T11:04:25.445Z,45.69
2018-03-30T11:06:54.558Z,45.54
2018-03-30T11:09:23.678Z,45.36
2018-03-30T11:11:52.827Z,45.16
2018-03-30T11:14:21.951Z,45.43
2018-03-30T11:16:51.058Z,45.54
2018-03-30T11:19:20.182Z,45.33
2018-03-30T11:21:49.328Z,45.43
2018-03-30T11:24:18.447Z,45.48
2018-03-30T11:26:47.547Z,44.96
2018-03-30T11:29:16.677Z,45.06
2018-03-30T11:31:45.788Z,45.27
2018-03-30T11:34:15.658Z,45.06
2018-03-30T11:36:44.795Z,44.96
2018-03-30T11:39:14.302Z,44.91
2018-03-30T11:41:45.251Z,44.78
2018-03-30T11:44:16.040Z,44.89
2018-03-30T11:46:45.159Z,43.73
2018-03-30T11:49:15.377Z,43.90
2018-03-30T11:51:44.510Z,44.09
2018-03-30T11:54:14.225Z,43.95
2018-03-30T11:56:44.156Z,43.74
2018-03-30T11:59:14.213Z,43.64
2018-03-30T12:01:43.351Z,43.67
2018-03-30T12:04:14.465Z,43.62
2018-03-30T12:06:43.585Z,43.56
2018-03-30T12:09:12.699Z,43.64
2018-03-30T12:11:41.922Z,43.90
2018-03-30T12:14:11.073Z,44.21
2018-03-30T12:16:40.249Z,44.92
2018-03-30T12:19:09.381Z,45.22
2018-03-30T12:21:38.514Z,45.46
2018-03-30T12:24:07.912Z,45.29
2018-03-30T12:26:37.796Z,45.54
2018-03-30T12:29:07.688Z,45.68
2018-03-30T12:31:36.800Z,45.72
2018-03-30T12:34:06.700Z,45.53
2018-03-30T12:36:35.823Z,44.66
2018-03-30T12:39:04.954Z,45.15
2018-03-30T12:41:34.110Z,45.29
2018-03-30T12:44:03.223Z,45.38
2018-03-30T12:46:32.354Z,44.96
2018-03-30T12:49:01.470Z,45.06
2018-03-30T12:51:30.600Z,45.77
2018-03-30T12:53:59.701Z,46.52
2018-03-30T12:56:29.622Z,46.73
2018-03-30T12:58:59.470Z,46.56
2018-03-30T13:01:28.596Z,46.08
2018-03-30T13:03:57.717Z,45.57
2018-03-30T13:06:27.632Z,45.82
2018-03-30T13:08:57.551Z,47.74
2018-03-30T13:11:27.497Z,46.79
2018-03-30T13:13:56.634Z,45.49
2018-03-30T13:16:25.761Z,47.72
2018-03-30T13:18:55.654Z,47.31
2018-03-30T13:21:24.775Z,47.29
2018-03-30T13:23:53.904Z,45.85
2018-03-30T13:26:23.814Z,45.90
2018-03-30T13:28:52.935Z,45.88
2018-03-30T13:31:22.085Z,45.34
2018-03-30T13:33:51.965Z,44.68
2018-03-30T13:36:21.074Z,44.25
2018-03-30T13:38:50.219Z,42.73
2018-03-30T13:41:19.351Z,42.27
2018-03-30T13:43:48.456Z,41.36
2018-03-30T13:46:17.601Z,40.85
2018-03-30T13:48:47.696Z,40.72
2018-03-30T13:51:28.330Z,40.90
2018-03-30T13:54:13.104Z,41.07
2018-03-30T13:56:45.713Z,41.34
2018-03-30T13:59:21.284Z,41.86
2018-03-30T14:02:00.674Z,42.50
2018-03-30T14:08:09.058Z,43.21
2018-03-30T14:10:55.930Z,43.25
2018-03-30T14:13:25.816Z,43.67
2018-03-30T14:15:57.524Z,43.64
2018-03-30T14:18:27.569Z,44.53
2018-03-30T14:21:01.007Z,43.98
2018-03-30T14:23:31.584Z,42.87
2018-03-30T14:29:40.929Z,42.73
2018-03-30T14:32:17.449Z,43.27
2018-03-30T14:34:54.626Z,43.42
2018-03-30T14:37:37.184Z,43.90
2018-03-30T14:40:23.916Z,44.31
2018-03-30T14:43:09.126Z,44.08
2018-03-30T14:45:38.967Z,44.30
2018-03-30T14:48:08.854Z,43.79
2018-03-30T14:50:48.390Z,43.54
2018-03-30T14:53:22.892Z,43.12
2018-03-30T14:59:28.082Z,43.07
2018-03-30T15:02:00.692Z,43.06
2018-03-30T15:04:42.337Z,42.97
2018-03-30T15:07:17.917Z,42.56
2018-03-30T15:15:39.642Z,37.96
2018-03-30T15:18:18.923Z,37.27
2018-03-30T15:20:51.966Z,38.58
2018-03-30T15:23:34.762Z,36.80
2018-03-30T15:26:10.384Z,36.26
2018-03-30T15:28:46.734Z,35.81
2018-03-30T15:31:36.955Z,35.85
2018-03-30T15:34:31.793Z,36.44
2018-03-30T15:37:15.328Z,35.92
2018-03-30T15:40:13.281Z,36.27
2018-03-30T15:46:00.984Z,36.47
2018-03-30T15:48:30.106Z,36.96
2018-03-30T15:51:05.006Z,37.32
2018-03-30T15:53:33.351Z,37.33
2018-03-30T15:56:03.212Z,37.53
2018-03-30T15:58:33.110Z,37.58
2018-03-30T16:01:02.210Z,37.74
2018-03-30T16:03:31.353Z,37.85
2018-03-30T16:06:00.508Z,38.56
2018-03-30T16:08:29.624Z,38.19
2018-03-30T16:11:13.504Z,39.24
2018-03-30T16:13:42.647Z,39.51
2018-03-30T16:16:11.755Z,40.03
2018-03-30T16:18:56.038Z,41.77
2018-03-30T16:21:24.408Z,42.80
2018-03-30T16:23:52.723Z,46.51
2018-03-30T16:26:21.069Z,48.39
2018-03-30T16:28:50.166Z,49.45
2018-03-30T16:31:18.495Z,49.53
2018-03-30T16:33:46.786Z,50.09
2018-03-30T16:36:15.899Z,51.06
2018-03-30T16:38:44.231Z,52.36
2018-03-30T16:41:12.558Z,55.13
2018-03-30T16:43:40.878Z,56.38
2018-03-30T16:46:09.220Z,56.24
2018-03-30T16:48:37.543Z,56.71
2018-03-30T16:51:05.876Z,56.46
2018-03-30T16:53:34.999Z,56.29
2018-03-30T16:56:03.361Z,56.90
2018-03-30T16:58:31.690Z,56.50
2018-03-30T17:01:00.761Z,57.09
2018-03-30T17:03:29.103Z,57.80
2018-03-30T17:05:57.451Z,57.48
2018-03-30T17:08:25.766Z,57.78
2018-03-30T17:10:54.114Z,58.16
2018-03-30T17:13:22.457Z,58.16
2018-03-30T17:15:50.789Z,58.89
2018-03-30T17:18:19.124Z,59.91
2018-03-30T17:20:47.466Z,59.81
2018-03-30T17:23:15.808Z,60.25
2018-03-30T17:25:44.116Z,61.23
2018-03-30T17:28:12.437Z,62.20
2018-03-30T17:30:40.808Z,63.27
2018-03-30T17:33:09.136Z,63.29
2018-03-30T17:35:37.446Z,63.88
2018-03-30T17:38:05.765Z,63.77
2018-03-30T17:40:34.871Z,63.73
2018-03-30T17:43:03.205Z,64.21
2018-03-30T17:45:31.551Z,64.20
2018-03-30T17:47:59.854Z,64.36
2018-03-30T17:50:28.182Z,65.22
2018-03-30T17:52:56.500Z,64.94
2018-03-30T17:55:24.824Z,65.32
2018-03-30T17:57:53.903Z,65.84
2018-03-30T18:00:22.246Z,66.19
2018-03-30T18:02:50.603Z,67.49
2018-03-30T18:05:19.676Z,67.44
2018-03-30T18:07:48.033Z,67.32
2018-03-30T18:10:16.378Z,67.06
2018-03-30T18:12:45.475Z,66.91
2018-03-30T18:15:14.818Z,66.58
2018-03-30T18:17:43.140Z,66.80
2018-03-30T18:20:11.481Z,66.79
2018-03-30T18:22:39.822Z,67.06
2018-03-30T18:25:08.153Z,66.97
2018-03-30T18:27:37.282Z,66.84
2018-03-30T18:30:05.585Z,66.92
2018-03-30T18:32:33.954Z,67.48
2018-03-30T18:35:02.319Z,67.02
2018-03-30T18:37:30.644Z,67.19
2018-03-30T18:39:58.957Z,67.89
2018-03-30T18:42:27.308Z,68.06
2018-03-30T18:44:56.413Z,68.61
2018-03-30T18:47:25.515Z,68.78
2018-03-30T18:49:54.605Z,68.52
2018-03-30T18:52:23.697Z,68.95
2018-03-30T18:54:53.514Z,68.84
2018-03-30T18:57:22.610Z,69.05
2018-03-30T18:59:52.944Z,69.59
2018-03-30T19:02:21.311Z,70.26
2018-03-30T19:04:50.400Z,70.75
2018-03-30T19:07:18.714Z,71.20
2018-03-30T19:09:47.045Z,71.37
2018-03-30T19:12:15.392Z,71.07
2018-03-30T19:14:43.784Z,71.23
2018-03-30T19:17:12.089Z,71.59
2018-03-30T19:19:41.198Z,71.75
2018-03-30T19:22:10.282Z,71.32
2018-03-30T19:24:39.350Z,71.55
2018-03-30T19:27:08.455Z,71.48
2018-03-30T19:29:36.818Z,71.26
2018-03-30T19:32:05.140Z,71.52
2018-03-30T19:34:34.232Z,71.41
2018-03-30T19:37:02.579Z,71.57
2018-03-30T19:39:30.905Z,71.60
2018-03-30T19:41:59.271Z,71.67
2018-03-30T19:44:27.585Z,71.94
2018-03-30T19:46:55.924Z,71.74
2018-03-30T19:49:25.020Z,71.65
2018-03-30T19:51:54.104Z,71.41
2018-03-30T19:54:23.225Z,71.06
2018-03-30T19:56:53.421Z,70.56
2018-03-30T19:59:21.726Z,70.09
2018-03-30T20:01:50.039Z,69.71
2018-03-30T20:04:18.358Z,69.71
2018-03-30T20:06:46.692Z,69.33
2018-03-30T20:09:15.011Z,68.99
2018-03-30T20:11:43.338Z,69.06
2018-03-30T20:14:11.634Z,69.01
2018-03-30T20:16:40.029Z,68.85
2018-03-30T20:19:09.112Z,68.95
2018-03-30T20:21:37.446Z,68.64
2018-03-30T20:24:05.744Z,68.28
2018-03-30T20:26:34.078Z,68.34
2018-03-30T20:29:02.395Z,68.39
2018-03-30T20:31:30.736Z,68.33
2018-03-30T20:33:59.839Z,68.11
2018-03-30T20:36:28.927Z,67.90
2018-03-30T20:38:57.302Z,68.27
2018-03-30T20:41:26.387Z,67.86
2018-03-30T20:43:54.728Z,67.73
2018-03-30T20:46:23.788Z,67.59
2018-03-30T20:48:52.735Z,67.84
2018-03-30T20:51:21.045Z,68.14
2018-03-30T20:53:49.390Z,68.26
2018-03-30T20:56:17.721Z,68.25
2018-03-30T20:58:46.767Z,68.43
2018-03-30T21:01:15.126Z,68.22
2018-03-30T21:03:43.460Z,68.58
2018-03-30T21:06:12.539Z,68.70
2018-03-30T21:08:40.871Z,68.89
2018-03-30T21:11:09.187Z,68.87
2018-03-30T21:13:37.519Z,68.82
2018-03-30T21:16:05.828Z,68.83
2018-03-30T21:18:34.136Z,68.96
2018-03-30T21:21:03.260Z,68.74
2018-03-30T21:23:31.575Z,68.67
2018-03-30T21:25:59.918Z,68.76
2018-03-30T21:28:28.225Z,68.87
2018-03-30T21:30:56.548Z,68.71
2018-03-30T21:33:25.630Z,68.82
2018-03-30T21:35:53.933Z,68.92
2018-03-30T21:38:22.262Z,68.63
2018-03-30T21:40:50.578Z,68.75
2018-03-30T21:43:18.930Z,69.06
2018-03-30T21:45:47.231Z,68.92
2018-03-30T21:48:15.564Z,68.97
2018-03-30T21:50:43.865Z,68.90
2018-03-30T21:53:12.213Z,68.85
2018-03-30T21:55:40.508Z,68.85
2018-03-30T21:58:08.824Z,68.72
2018-03-30T22:00:37.126Z,69.00
2018-03-30T22:03:06.233Z,68.95
2018-03-30T22:05:34.533Z,69.28
2018-03-30T22:08:02.861Z,69.16
2018-03-30T22:10:31.183Z,69.59
2018-03-30T22:12:59.513Z,69.82
2018-03-30T22:15:28.580Z,70.03
2018-03-30T22:17:56.879Z,70.23
2018-03-30T22:20:25.954Z,70.29
2018-03-30T22:22:54.255Z,70.87
2018-03-30T22:25:22.591Z,71.12
2018-03-30T22:27:50.891Z,71.43
2018-03-30T22:30:19.213Z,71.47
2018-03-30T22:32:47.506Z,71.40
2018-03-30T22:35:15.824Z,71.39
2018-03-30T22:37:44.124Z,71.57
2018-03-30T22:40:12.422Z,71.60
2018-03-30T22:42:40.751Z,71.49
2018-03-30T22:45:09.079Z,71.33
2018-03-30T22:47:37.370Z,71.02
2018-03-30T22:50:05.734Z,70.77
2018-03-30T22:52:34.025Z,70.54
2018-03-30T22:55:02.360Z,70.37
2018-03-30T22:57:31.438Z,70.45
2018-03-30T23:00:00.549Z,70.55
2018-03-30T23:02:28.857Z,70.29
2018-03-30T23:04:57.197Z,70.47
2018-03-30T23:07:25.527Z,70.22
2018-03-30T23:09:53.846Z,69.98
2018-03-30T23:12:22.910Z,70.09
2018-03-30T23:14:51.273Z,69.81
2018-03-30T23:17:19.609Z,69.91
2018-03-30T23:19:47.907Z,69.85
2018-03-30T23:22:16.248Z,69.97
2018-03-30T23:24:44.564Z,69.86
2018-03-30T23:27:12.937Z,69.65
2018-03-30T23:29:41.990Z,69.72
2018-03-30T23:32:10.291Z,69.58
2018-03-30T23:34:39.387Z,69.43
2018-03-30T23:37:08.475Z,69.32
2018-03-30T23:39:37.552Z,69.14
2018-03-30T23:42:05.852Z,69.17
2018-03-30T23:44:34.931Z,69.31
2018-03-30T23:47:03.252Z,69.45
2018-03-30T23:49:31.555Z,69.61
2018-03-30T23:51:59.858Z,69.61
2018-03-30T23:54:28.193Z,69.84
2018-03-30T23:56:56.494Z,69.80
2018-03-30T23:59:24.798Z,69.74
